Řízení letového provozu České republiky
Letiste: LKKB Aktualizace: 30.08.2016 04:08:14  UTC
 METAR LKKB 30.08. 04:00 ...
METAR LKKB 300400Z 35006KT CAVOK 15/13 Q1024 NOSIG=
 TAF LKKB 29.08. 17:00 ...
TAF LKKB 291700Z 2918/3018 VRB02KT CAVOK      BECMG 3000/3002 33006KT      TEMPO 3003/3007 3000 BR NSC=